Time;durP1;ratioP1;P1;durP2;ratioP2;P2;SDS_P1;SDS_P2;PMS_P1;PMS_P2;Temp;Humidity;BMP_temperature;BMP_pressure;BME280_temperature;BME280_humidity;BME280_pressure;Samples;Min_cycle;Max_cycle;Signal;HPM_P1;HPM_P2
2024/03/15 00:02:22;;;;;;;10.43;7.60;;;;;;;9.13;86.36;98191.72;5069986;28;20023;-75
2024/03/15 00:04:48;;;;;;;12.82;8.25;;;;;;;9.04;85.68;98190.59;5068910;28;20519;-75
2024/03/15 00:07:13;;;;;;;10.13;8.23;;;;;;;9.15;86.03;98199.47;5066733;28;20028;-76
2024/03/15 00:09:39;;;;;;;8.85;7.45;;;;;;;8.96;87.02;98188.38;5070219;28;20032;-75
2024/03/15 00:12:05;;;;;;;10.93;7.28;;;;;;;8.90;86.61;98184.91;5052481;28;20102;-75
2024/03/15 00:14:30;;;;;;;10.27;7.25;;;;;;;8.81;86.67;98148.34;5073769;28;20029;-75
2024/03/15 00:16:56;;;;;;;10.82;7.78;;;;;;;9.00;86.68;98174.31;5056158;28;20078;-75
2024/03/15 00:19:22;;;;;;;12.38;8.18;;;;;;;8.94;86.26;98191.31;5057674;28;20040;-75
2024/03/15 00:21:48;;;;;;;12.05;8.73;;;;;;;8.90;87.43;98186.75;5071834;28;20039;-76
2024/03/15 00:24:14;;;;;;;9.82;7.72;;;;;;;8.98;86.63;98168.44;5075914;28;20028;-75
2024/03/15 00:26:43;;;;;;;10.90;8.00;;;;;;;8.90;87.75;98184.91;5057655;28;20041;-75
2024/03/15 00:29:12;;;;;;;10.73;7.78;;;;;;;9.07;86.28;98190.06;5071150;28;20028;-76
2024/03/15 00:31:40;;;;;;;12.23;8.52;;;;;;;8.85;87.32;98182.19;5066709;28;20031;-75
2024/03/15 00:34:08;;;;;;;10.43;8.20;;;;;;;9.01;86.04;98177.78;5071136;28;20028;-76
2024/03/15 00:36:35;;;;;;;9.38;7.30;;;;;;;8.98;87.35;98176.44;5071819;28;20032;-76
2024/03/15 00:39:01;;;;;;;11.05;7.30;;;;;;;9.08;86.21;98175.72;5072991;28;20032;-76
2024/03/15 00:41:26;;;;;;;10.98;8.30;;;;;;;9.01;86.29;98169.81;5072591;28;20108;-76
2024/03/15 00:43:53;;;;;;;10.70;7.60;;;;;;;9.03;86.21;98168.50;5055751;28;20360;-77
2024/03/15 00:46:18;;;;;;;11.35;8.18;;;;;;;8.90;86.68;98173.44;5054954;28;20553;-76
2024/03/15 00:48:44;;;;;;;8.88;7.85;;;;;;;8.90;87.11;98166.25;5056108;28;20123;-76
2024/03/15 00:51:10;;;;;;;8.95;7.22;;;;;;;8.83;87.06;98159.53;5045687;28;20036;-76
2024/03/15 00:53:37;;;;;;;12.57;8.05;;;;;;;9.03;85.84;98173.81;5066421;28;20059;-76
2024/03/15 00:56:04;;;;;;;10.10;7.75;;;;;;;8.98;86.03;98155.13;5069436;28;20025;-76
2024/03/15 00:58:30;;;;;;;12.13;8.25;;;;;;;8.86;86.59;98169.69;5073403;28;20056;-76
2024/03/15 01:00:56;;;;;;;9.75;6.85;;;;;;;8.91;86.67;98149.22;5076647;28;20052;-76
2024/03/15 01:03:23;;;;;;;13.00;8.40;;;;;;;8.97;86.61;98156.22;5070665;28;20039;-76
2024/03/15 01:05:48;;;;;;;15.65;8.10;;;;;;;8.96;86.27;98159.91;5072537;28;20042;-76
2024/03/15 01:08:14;;;;;;;9.18;7.97;;;;;;;8.99;86.26;98151.44;5076940;28;20036;-76
2024/03/15 01:10:39;;;;;;;12.27;6.82;;;;;;;8.94;86.19;98147.91;5070301;28;20476;-76
2024/03/15 01:13:05;;;;;;;10.27;8.07;;;;;;;8.99;86.52;98145.31;5070166;28;20032;-76
2024/03/15 01:15:31;;;;;;;9.98;7.53;;;;;;;8.99;85.96;98135.47;5070054;28;20093;-76
2024/03/15 01:17:56;;;;;;;9.77;7.22;;;;;;;8.89;86.70;98138.03;5054358;28;20072;-76
2024/03/15 01:20:21;;;;;;;9.82;7.32;;;;;;;8.93;86.85;98130.38;5074300;28;20028;-76
2024/03/15 01:22:47;;;;;;;10.93;7.68;;;;;;;9.06;86.53;98132.59;5072826;28;20119;-76
2024/03/15 01:25:13;;;;;;;10.73;8.23;;;;;;;8.99;86.24;98130.16;5068773;28;20119;-75
2024/03/15 01:27:39;;;;;;;9.07;7.07;;;;;;;8.94;86.58;98132.75;5076474;28;20036;-76
2024/03/15 01:30:05;;;;;;;9.05;6.88;;;;;;;8.83;86.63;98120.44;5071033;28;20055;-76
2024/03/15 01:32:30;;;;;;;9.75;7.57;;;;;;;8.87;87.50;98128.69;5070805;28;20039;-75
2024/03/15 01:34:55;;;;;;;11.10;8.02;;;;;;;8.91;86.94;98133.25;5056151;28;20075;-76
2024/03/15 01:37:20;;;;;;;10.73;7.78;;;;;;;8.86;86.49;98114.63;5070569;28;20507;-76
2024/03/15 01:39:50;;;;;;;7.97;7.18;;;;;;;8.81;86.68;98122.53;5052227;28;20124;-77
2024/03/15 01:42:16;;;;;;;11.35;7.60;;;;;;;8.93;86.99;98127.69;5074555;28;20032;-76
2024/03/15 01:44:52;;;;;;;11.52;8.82;;;;;;;8.93;86.77;98120.50;5073900;28;20024;-76
2024/03/15 01:47:26;;;;;;;11.25;8.00;;;;;;;8.72;86.82;98110.75;5066056;28;20119;-76
2024/03/15 01:49:56;;;;;;;11.98;8.73;;;;;;;8.89;86.59;98124.72;5071695;28;20039;-76
2024/03/15 01:52:22;;;;;;;11.48;8.10;;;;;;;8.88;86.92;98125.00;5075360;28;20465;-76
2024/03/15 01:54:48;;;;;;;12.20;7.88;;;;;;;8.88;86.83;98117.00;5069197;28;20067;-75
2024/03/15 01:57:14;;;;;;;11.57;8.25;;;;;;;8.90;86.80;98130.84;5074240;28;20056;-75
2024/03/15 01:59:41;;;;;;;10.85;7.72;;;;;;;8.79;87.57;98127.31;5073123;28;20024;-75
2024/03/15 02:02:09;;;;;;;9.75;8.07;;;;;;;8.85;86.54;98113.00;5058495;28;20035;-75
2024/03/15 02:04:35;;;;;;;9.90;7.72;;;;;;;8.95;86.74;98115.72;5078127;28;20388;-75
2024/03/15 02:07:02;;;;;;;9.93;7.88;;;;;;;8.78;86.82;98100.97;5068333;28;20397;-75
2024/03/15 02:09:30;;;;;;;10.88;8.27;;;;;;;9.04;86.15;98113.41;5051419;28;21335;-75
2024/03/15 02:11:56;;;;;;;11.10;7.90;;;;;;;9.00;86.79;98125.59;5073166;28;20047;-75
2024/03/15 02:14:22;;;;;;;10.95;7.63;;;;;;;8.92;85.81;98102.94;5059578;28;20029;-75
2024/03/15 02:16:47;;;;;;;12.27;7.75;;;;;;;9.07;85.79;98116.34;5073254;28;20120;-75
2024/03/15 02:19:14;;;;;;;13.02;7.57;;;;;;;8.85;85.96;98110.34;5073195;28;20526;-75
2024/03/15 02:21:43;;;;;;;7.90;7.10;;;;;;;9.00;86.28;98115.75;5056602;28;20028;-75
2024/03/15 02:24:08;;;;;;;14.57;8.35;;;;;;;8.75;86.17;98118.25;5073814;28;20097;-75
2024/03/15 02:26:34;;;;;;;12.82;7.72;;;;;;;8.78;86.64;98104.41;5068721;28;20177;-75
2024/03/15 02:29:01;;;;;;;11.45;7.78;;;;;;;8.94;86.44;98106.16;5071109;28;20032;-75
2024/03/15 02:31:26;;;;;;;9.77;7.80;;;;;;;9.03;85.66;98107.28;5073008;28;20121;-75
2024/03/15 02:33:54;;;;;;;13.40;8.38;;;;;;;9.00;85.96;98106.97;5078774;28;20516;-75
2024/03/15 02:36:20;;;;;;;9.13;7.45;;;;;;;8.98;85.65;98099.25;5079803;28;20028;-75
2024/03/15 02:38:47;;;;;;;14.68;8.32;;;;;;;8.68;85.74;98084.94;5078260;28;20029;-75
2024/03/15 02:41:16;;;;;;;12.60;7.65;;;;;;;8.76;86.83;98093.22;5077285;28;20033;-76
2024/03/15 02:43:42;;;;;;;14.73;9.25;;;;;;;8.61;86.32;98101.09;5082032;28;20119;-75
2024/03/15 02:46:08;;;;;;;15.23;8.40;;;;;;;8.75;87.00;98098.81;5046563;28;20100;-75
2024/03/15 02:48:38;;;;;;;10.38;7.80;;;;;;;8.85;86.03;98101.53;5074440;28;20051;-75
2024/03/15 02:51:05;;;;;;;10.15;7.07;;;;;;;9.03;86.02;98096.63;5070156;28;20021;-75
2024/03/15 02:53:30;;;;;;;9.68;7.22;;;;;;;9.00;85.77;98101.66;5071409;28;20574;-76
2024/03/15 02:55:56;;;;;;;9.52;7.43;;;;;;;8.79;86.54;98097.25;5073807;28;20028;-75
2024/03/15 02:58:21;;;;;;;11.25;8.07;;;;;;;8.77;87.28;98097.50;5063784;28;20028;-76
2024/03/15 03:00:47;;;;;;;9.68;8.00;;;;;;;8.95;86.29;98101.63;5073547;28;20040;-75
2024/03/15 03:03:12;;;;;;;10.15;8.15;;;;;;;8.93;85.85;98099.19;5085240;22;20575;-81
2024/03/15 03:05:39;;;;;;;7.57;6.82;;;;;;;8.69;85.96;98102.50;5016775;28;20456;-81
2024/03/15 03:08:05;;;;;;;12.77;7.95;;;;;;;8.40;88.23;98096.66;5017213;28;20029;-80
2024/03/15 03:10:30;;;;;;;9.02;6.45;;;;;;;8.59;87.60;98081.94;5018364;28;20572;-80
2024/03/15 03:12:56;;;;;;;8.07;7.28;;;;;;;8.67;86.39;98080.69;5019410;28;20128;-80
2024/03/15 03:15:22;;;;;;;11.52;7.95;;;;;;;8.80;86.32;98086.34;5033679;28;20409;-80
2024/03/15 03:17:47;;;;;;;13.07;9.25;;;;;;;8.26;87.02;98088.31;5015943;28;20477;-80
2024/03/15 03:20:18;;;;;;;9.95;7.90;;;;;;;8.46;87.77;98093.00;5016400;28;20080;-80
2024/03/15 03:22:45;;;;;;;12.88;8.98;;;;;;;8.38;87.63;98080.16;4998415;28;20033;-80
2024/03/15 03:25:10;;;;;;;11.50;7.65;;;;;;;8.58;87.38;98084.84;5016619;28;20032;-80
2024/03/15 03:27:36;;;;;;;14.52;7.95;;;;;;;8.36;87.31;98071.66;5016863;28;20021;-80
2024/03/15 03:30:02;;;;;;;11.80;7.82;;;;;;;8.61;86.92;98093.13;5017286;28;20063;-80
2024/03/15 03:32:28;;;;;;;10.80;7.90;;;;;;;8.68;86.81;98088.41;5019069;28;20029;-80
2024/03/15 03:34:53;;;;;;;9.35;6.97;;;;;;;8.58;86.34;98079.53;5015866;28;20388;-80
2024/03/15 03:37:19;;;;;;;9.35;7.32;;;;;;;8.77;86.12;98096.69;5036950;28;20059;-80
2024/03/15 03:39:46;;;;;;;10.85;7.30;;;;;;;8.81;86.50;98093.28;5035896;28;20029;-80
2024/03/15 03:42:11;;;;;;;10.23;7.88;;;;;;;8.75;86.17;98081.00;5019215;28;20029;-79
2024/03/15 03:44:37;;;;;;;9.82;7.18;;;;;;;8.65;85.95;98080.91;4999137;28;20025;-80
2024/03/15 03:47:03;;;;;;;13.13;8.38;;;;;;;8.43;86.56;98093.50;4994668;28;20037;-80
2024/03/15 03:49:28;;;;;;;9.77;7.03;;;;;;;8.44;88.31;98096.97;4995009;28;20025;-80
2024/03/15 03:51:54;;;;;;;9.48;7.55;;;;;;;8.63;87.19;98088.34;5028968;28;20029;-80
2024/03/15 03:54:19;;;;;;;9.88;7.13;;;;;;;8.48;86.64;98096.19;5033252;28;20124;-81
2024/03/15 03:56:45;;;;;;;13.43;7.30;;;;;;;8.53;86.84;98104.22;5002012;28;20065;-80
2024/03/15 03:59:10;;;;;;;11.50;8.35;;;;;;;8.23;86.76;98087.97;4996649;28;20033;-79
2024/03/15 04:01:36;;;;;;;9.13;7.13;;;;;;;8.52;86.93;98097.28;4993545;28;20056;-79
2024/03/15 04:04:01;;;;;;;10.48;7.05;;;;;;;8.54;86.93;98087.19;5009953;28;20641;-80
2024/03/15 04:06:27;;;;;;;9.30;7.47;;;;;;;8.48;86.74;98101.53;5011279;28;20119;-79
2024/03/15 04:08:53;;;;;;;8.50;7.35;;;;;;;8.66;86.36;98093.16;4999059;28;20033;-80
2024/03/15 04:11:18;;;;;;;10.40;6.63;;;;;;;8.65;85.60;98098.75;5012735;28;20423;-80
2024/03/15 04:13:44;;;;;;;9.32;6.43;;;;;;;8.63;86.39;98095.50;5013586;28;20068;-80
2024/03/15 04:16:10;;;;;;;10.40;7.85;;;;;;;8.63;85.79;98095.50;4999147;28;20021;-80
2024/03/15 04:18:36;;;;;;;8.68;7.32;;;;;;;8.65;85.86;98101.41;4995771;28;20048;-80
2024/03/15 04:21:03;;;;;;;11.30;6.60;;;;;;;8.44;86.19;98088.97;5031085;28;20437;-80
2024/03/15 04:23:30;;;;;;;8.50;6.85;;;;;;;8.35;86.98;98091.31;5014238;28;20059;-80
2024/03/15 04:25:56;;;;;;;8.52;7.05;;;;;;;8.35;87.70;98098.47;5033286;28;20112;-81
2024/03/15 04:28:21;;;;;;;10.10;7.65;;;;;;;8.24;87.42;98082.41;5012778;28;20120;-80
2024/03/15 04:30:47;;;;;;;8.05;7.25;;;;;;;8.26;87.58;98067.03;5028105;28;20048;-80
2024/03/15 04:33:13;;;;;;;9.45;7.05;;;;;;;8.45;86.58;98066.66;4999041;28;20515;-80
2024/03/15 04:35:40;;;;;;;10.38;6.65;;;;;;;8.38;86.33;98072.19;5030571;28;20052;-80
2024/03/15 04:38:05;;;;;;;9.43;7.38;;;;;;;8.26;87.10;98090.16;5015972;28;20064;-81
2024/03/15 04:40:31;;;;;;;9.43;7.10;;;;;;;8.18;87.43;98083.41;4998438;28;20030;-80
2024/03/15 04:42:56;;;;;;;9.52;7.15;;;;;;;8.31;87.28;98100.84;5034876;28;20060;-81
2024/03/15 04:45:22;;;;;;;9.90;7.72;;;;;;;8.33;87.42;98104.03;4998574;28;20036;-81
2024/03/15 04:47:48;;;;;;;9.30;7.10;;;;;;;8.37;87.12;98102.47;5007997;28;20044;-80
2024/03/15 04:50:15;;;;;;;15.40;8.27;;;;;;;8.15;86.47;98043.22;5027701;28;20176;-80
2024/03/15 04:52:42;;;;;;;9.10;7.13;;;;;;;8.27;86.76;98087.25;5012904;28;20163;-80
2024/03/15 04:55:11;;;;;;;12.82;7.70;;;;;;;8.35;86.33;98079.84;5012256;28;20044;-80
2024/03/15 04:57:38;;;;;;;16.80;8.38;;;;;;;8.21;87.09;98066.94;5031560;28;20033;-80
2024/03/15 05:00:20;;;;;;;11.50;8.68;;;;;;;8.22;87.33;98084.50;5010738;28;20032;-80
2024/03/15 05:02:48;;;;;;;10.30;6.93;;;;;;;8.06;88.24;98071.34;5010882;28;20025;-80
2024/03/15 05:05:15;;;;;;;10.13;7.50;;;;;;;8.06;88.11;98095.25;5009135;28;20025;-80
2024/03/15 05:07:41;;;;;;;11.13;7.78;;;;;;;8.19;88.04;98086.88;5012616;28;20033;-80
2024/03/15 05:10:07;;;;;;;10.63;7.97;;;;;;;8.13;88.14;98074.56;5028001;28;20026;-80
2024/03/15 05:12:33;;;;;;;11.68;8.40;;;;;;;8.17;87.44;98087.13;5013845;28;20397;-80
2024/03/15 05:14:58;;;;;;;11.23;9.43;;;;;;;8.11;87.77;98066.88;5014977;28;20079;-80
2024/03/15 05:17:24;;;;;;;11.75;7.60;;;;;;;8.17;87.69;98083.66;4980828;28;20022;-79
2024/03/15 05:19:49;;;;;;;12.65;8.30;;;;;;;8.13;87.24;98067.41;4980768;28;20173;-79
2024/03/15 05:22:14;;;;;;;13.45;8.30;;;;;;;8.18;87.88;98075.44;5012914;28;20540;-80
2024/03/15 05:24:40;;;;;;;10.13;7.50;;;;;;;8.16;87.49;98074.09;5012556;28;20040;-79
2024/03/15 05:27:05;;;;;;;13.50;8.50;;;;;;;8.21;87.62;98080.22;5016622;28;20484;-80
2024/03/15 05:29:30;;;;;;;11.00;8.95;;;;;;;8.14;87.39;98073.53;5030379;28;20037;-79
2024/03/15 05:31:56;;;;;;;11.95;9.23;;;;;;;7.90;87.39;98061.59;5033390;28;20030;-80
2024/03/15 05:34:21;;;;;;;11.60;7.95;;;;;;;8.25;87.14;98089.38;5003441;28;20029;-80
2024/03/15 05:36:46;;;;;;;11.52;9.00;;;;;;;8.23;87.21;98082.66;5002431;28;20056;-80
2024/03/15 05:39:12;;;;;;;12.77;9.02;;;;;;;8.23;87.74;98085.31;4980213;28;20634;-80
2024/03/15 05:41:40;;;;;;;9.88;7.60;;;;;;;8.17;87.22;98079.13;4998360;28;20404;-80
2024/03/15 05:44:06;;;;;;;10.70;8.25;;;;;;;8.16;87.28;98090.84;5012745;28;20034;-79
2024/03/15 05:46:32;;;;;;;13.82;10.38;;;;;;;8.06;88.17;98084.63;5013423;28;20066;-79
2024/03/15 05:48:58;;;;;;;13.68;9.25;;;;;;;8.05;88.53;98102.41;5030699;28;20029;-80
2024/03/15 05:51:23;;;;;;;14.65;8.60;;;;;;;8.11;87.61;98111.22;5020007;28;20040;-79
2024/03/15 05:53:49;;;;;;;15.88;9.70;;;;;;;8.12;87.88;98094.25;5031627;28;20483;-80
2024/03/15 05:56:18;;;;;;;13.30;10.05;;;;;;;7.87;88.61;98099.28;5032801;28;20108;-80
2024/03/15 05:58:44;;;;;;;11.80;8.90;;;;;;;7.85;89.93;98086.25;5013707;28;20381;-79
2024/03/15 06:01:11;;;;;;;16.33;10.05;;;;;;;8.07;88.51;98099.50;4998640;28;20040;-79
2024/03/15 06:03:36;;;;;;;11.07;8.05;;;;;;;8.12;88.92;98104.88;5016382;28;20030;-79
2024/03/15 06:06:07;;;;;;;11.32;8.75;;;;;;;7.97;89.12;98094.09;5033800;28;20021;-80
2024/03/15 06:08:32;;;;;;;12.63;8.57;;;;;;;7.88;89.86;98093.75;4996017;28;20068;-80
2024/03/15 06:10:58;;;;;;;13.60;10.45;;;;;;;7.86;89.25;98087.88;5016305;28;20041;-79
2024/03/15 06:13:25;;;;;;;14.13;9.43;;;;;;;7.88;89.54;98079.66;5026468;28;20040;-80
2024/03/15 06:15:50;;;;;;;14.80;8.52;;;;;;;7.93;88.92;98088.47;5026924;28;20409;-80
2024/03/15 06:18:16;;;;;;;12.05;9.20;;;;;;;7.55;91.44;98084.06;5029551;28;20029;-79
2024/03/15 06:20:41;;;;;;;13.98;8.40;;;;;;;7.89;89.52;98091.88;4998390;28;20032;-80
2024/03/15 06:23:06;;;;;;;10.65;8.70;;;;;;;8.03;88.69;98093.09;5017813;28;20525;-80
2024/03/15 06:25:32;;;;;;;12.20;8.98;;;;;;;7.92;90.01;98108.13;4984659;28;20040;-80
2024/03/15 06:28:06;;;;;;;11.70;8.98;;;;;;;7.97;89.70;98097.53;5032177;28;20041;-80
2024/03/15 06:30:33;;;;;;;13.57;10.35;;;;;;;7.57;93.27;98103.22;4987005;28;20079;-79
2024/03/15 06:32:59;;;;;;;13.30;9.13;;;;;;;7.42;96.49;98081.78;5019073;28;20045;-80
2024/03/15 06:35:27;;;;;;;12.30;8.68;;;;;;;7.85;91.94;98102.19;5002504;28;20428;-79
2024/03/15 06:37:57;;;;;;;13.38;8.38;;;;;;;7.96;89.70;98064.06;5000886;28;20100;-80
2024/03/15 06:40:45;;;;;;;10.75;8.23;;;;;;;8.33;88.21;98093.41;5020669;28;20022;-80
2024/03/15 06:43:13;;;;;;;14.20;8.30;;;;;;;8.25;88.15;98093.84;5035561;28;20029;-80
2024/03/15 06:48:43;;;;;;;10.73;8.02;;;;;;;8.22;90.79;98094.34;5009264;28;20041;-80
2024/03/15 06:53:52;;;;;;;14.65;9.65;;;;;;;8.09;92.31;98092.09;5030430;28;20464;-80
2024/03/15 06:56:18;;;;;;;10.80;8.18;;;;;;;8.02;93.80;98089.63;5003299;28;20054;-80
2024/03/15 06:58:43;;;;;;;15.85;9.57;;;;;;;8.16;94.38;98088.19;4994846;28;20034;-80
2024/03/15 07:01:11;;;;;;;14.77;9.80;;;;;;;8.17;93.00;98083.66;4993469;28;20029;-80
2024/03/15 07:03:40;;;;;;;10.05;7.38;;;;;;;8.25;92.37;98081.41;4982075;28;20060;-80
2024/03/15 07:06:05;;;;;;;12.82;9.23;;;;;;;8.49;91.06;98102.31;5014103;28;20432;-80
2024/03/15 07:08:33;;;;;;;13.45;7.32;;;;;;;8.44;91.72;98087.13;5013926;28;20026;-80
2024/03/15 07:10:59;;;;;;;14.40;9.90;;;;;;;8.61;92.89;98090.47;5032283;28;20057;-80
2024/03/15 07:13:24;;;;;;;11.75;9.00;;;;;;;8.72;91.86;98094.81;4983988;28;20065;-80
2024/03/15 07:15:50;;;;;;;12.18;8.00;;;;;;;8.75;92.33;98085.50;5014907;28;20047;-80
2024/03/15 07:18:15;;;;;;;16.08;9.70;;;;;;;8.87;93.06;98102.91;5006024;28;20033;-80
2024/03/15 07:20:43;;;;;;;11.65;8.57;;;;;;;8.85;92.53;98089.03;5009535;28;20040;-79
2024/03/15 07:23:10;;;;;;;13.05;8.05;;;;;;;8.94;92.71;98105.34;5022598;28;20042;-80
2024/03/15 07:25:36;;;;;;;12.05;8.82;;;;;;;9.02;92.16;98100.34;5037913;28;20021;-80
2024/03/15 07:28:02;;;;;;;11.85;7.57;;;;;;;9.04;92.18;98087.56;5004661;28;20025;-84
2024/03/15 07:30:28;;;;;;;10.05;8.32;;;;;;;9.19;91.56;98102.84;5007064;28;20029;-84
2024/03/15 07:32:53;;;;;;;13.38;9.07;;;;;;;9.21;91.63;98095.41;5005087;28;20507;-84
2024/03/15 07:35:19;;;;;;;13.05;8.15;;;;;;;9.10;92.27;98077.78;5002994;28;20034;-83
2024/03/15 07:37:47;;;;;;;11.52;7.30;;;;;;;9.24;91.61;98104.75;5018598;28;20097;-84
2024/03/15 07:40:13;;;;;;;10.93;8.02;;;;;;;9.22;92.26;98088.22;5019714;28;20670;-83
2024/03/15 07:42:39;;;;;;;11.43;7.93;;;;;;;9.34;91.09;98110.94;5038394;28;20033;-84
2024/03/15 07:45:04;;;;;;;11.80;7.45;;;;;;;9.34;91.46;98099.47;5012510;28;20740;-84
2024/03/15 07:47:30;;;;;;;13.60;8.70;;;;;;;9.34;91.91;98097.59;5021316;28;20144;-84
2024/03/15 07:49:55;;;;;;;15.57;7.07;;;;;;;9.31;91.89;98087.47;5021213;28;20033;-84
2024/03/15 07:52:21;;;;;;;10.15;7.90;;;;;;;9.53;91.31;98116.59;5018423;28;20507;-84
2024/03/15 07:54:46;;;;;;;9.82;7.40;;;;;;;9.46;90.72;98092.88;5020641;28;20124;-84
2024/03/15 07:57:12;;;;;;;12.48;8.38;;;;;;;9.52;91.27;98096.38;5021865;28;20060;-83
2024/03/15 07:59:38;;;;;;;12.10;8.55;;;;;;;9.54;90.89;98100.38;5007009;28;20528;-83
2024/03/15 08:02:04;;;;;;;14.50;9.00;;;;;;;9.67;90.13;98115.88;5039682;28;20029;-83
2024/03/15 08:04:30;;;;;;;10.93;7.90;;;;;;;9.60;89.59;98082.53;5003861;28;20404;-84
2024/03/15 08:06:55;;;;;;;11.07;7.65;;;;;;;9.69;90.04;98100.44;5002810;28;20033;-84
2024/03/15 08:09:23;;;;;;;10.98;7.30;;;;;;;9.69;90.06;98080.97;5019461;28;20052;-85
2024/03/15 08:11:49;;;;;;;9.90;6.78;;;;;;;9.93;89.53;98103.44;5016850;28;20033;-84
2024/03/15 08:14:14;;;;;;;9.50;7.45;;;;;;;10.00;89.14;98112.00;5034615;28;20026;-84
2024/03/15 08:16:41;;;;;;;10.77;7.25;;;;;;;10.01;89.44;98105.59;5036174;28;20056;-84
2024/03/15 08:19:08;;;;;;;10.13;7.25;;;;;;;10.08;87.97;98102.69;5026503;28;20563;-84
2024/03/15 08:21:36;;;;;;;11.23;7.40;;;;;;;10.19;88.20;98109.66;5018705;28;20032;-83
2024/03/15 08:24:04;;;;;;;9.50;6.82;;;;;;;10.22;88.24;98120.59;5033209;28;20120;-84
2024/03/15 08:26:33;;;;;;;12.02;7.00;;;;;;;10.19;88.13;98121.16;5017222;28;20551;-84
2024/03/15 08:29:01;;;;;;;9.93;7.43;;;;;;;10.24;87.95;98110.47;5020509;28;20032;-83
2024/03/15 08:31:27;;;;;;;10.90;7.32;;;;;;;10.41;88.53;98111.06;5006224;28;20128;-84
2024/03/15 08:33:52;;;;;;;10.80;6.32;;;;;;;10.31;87.84;98094.25;5018947;28;20302;-84
2024/03/15 08:36:18;;;;;;;8.80;7.05;;;;;;;10.50;88.01;98119.34;5002504;28;20436;-84
2024/03/15 08:38:43;;;;;;;9.55;6.40;;;;;;;10.55;87.03;98106.78;5018677;28;20033;-84
2024/03/15 08:41:12;;;;;;;11.43;7.43;;;;;;;10.52;86.89;98102.00;5020429;28;20060;-84
2024/03/15 08:43:38;;;;;;;16.30;7.90;;;;;;;10.70;87.03;98131.88;5001895;28;20100;-83
2024/03/15 08:46:05;;;;;;;11.70;7.47;;;;;;;10.83;86.63;98128.69;5002287;28;20047;-84
2024/03/15 08:48:30;;;;;;;16.08;7.65;;;;;;;10.77;86.21;98124.41;5019958;28;20030;-84
2024/03/15 08:50:58;;;;;;;13.10;7.07;;;;;;;10.79;87.00;98140.97;4986111;28;20420;-84
2024/03/15 08:53:27;;;;;;;8.93;7.07;;;;;;;10.88;87.30;98136.66;5003320;28;20036;-84
2024/03/15 08:55:53;;;;;;;9.45;7.07;;;;;;;10.79;87.73;98147.09;5001486;28;20053;-83
2024/03/15 08:58:18;;;;;;;7.85;7.05;;;;;;;10.68;87.79;98155.38;5033949;28;20089;-85
2024/03/15 09:00:44;;;;;;;13.85;7.30;;;;;;;10.42;87.55;98130.50;5022713;28;20416;-85
2024/03/15 09:03:09;;;;;;;12.23;7.75;;;;;;;10.18;88.59;98122.19;5001735;28;20393;-86
2024/03/15 09:05:38;;;;;;;10.43;7.78;;;;;;;10.21;90.06;98127.00;5004393;28;20077;-86
2024/03/15 09:08:09;;;;;;;12.80;8.13;;;;;;;10.17;91.17;98117.94;5030986;28;20256;-86
2024/03/15 09:10:35;;;;;;;14.90;8.80;;;;;;;10.04;92.97;98123.75;5015255;28;20105;-85
2024/03/15 09:13:00;;;;;;;12.35;8.65;;;;;;;10.31;92.78;98158.25;5037888;28;20437;-85
2024/03/15 09:15:26;;;;;;;38.88;23.73;;;;;;;10.21;92.74;98159.00;5038965;28;20029;-86
2024/03/15 09:17:52;;;;;;;34.60;22.35;;;;;;;10.27;92.84;98157.97;5032666;28;20064;-86
2024/03/15 09:22:43;;;;;;;17.02;11.35;;;;;;;10.38;92.67;98140.09;5020681;28;20029;-86
2024/03/15 09:25:18;;;;;;;14.00;10.48;;;;;;;10.09;92.18;98110.41;5022920;28;20025;-86
2024/03/15 09:27:48;;;;;;;16.58;10.23;;;;;;;10.36;93.01;98148.38;5021172;28;20104;-86
2024/03/15 09:30:18;;;;;;;15.25;9.90;;;;;;;10.47;93.23;98162.53;5021265;28;20025;-85
2024/03/15 09:32:44;;;;;;;17.20;10.88;;;;;;;10.39;93.71;98163.88;5026476;28;20032;-86
2024/03/15 09:35:12;;;;;;;14.30;9.68;;;;;;;10.29;93.50;98142.50;5031131;28;20121;-85
2024/03/15 09:37:46;;;;;;;13.55;9.65;;;;;;;10.37;92.84;98151.84;5017838;28;20033;-85
2024/03/15 09:40:15;;;;;;;14.00;10.07;;;;;;;10.45;92.53;98164.66;5002231;28;20034;-85
2024/03/15 09:42:43;;;;;;;15.00;10.25;;;;;;;10.33;92.77;98138.22;5016585;28;20025;-85
2024/03/15 09:45:18;;;;;;;15.40;10.43;;;;;;;10.37;92.81;98147.31;5014499;28;20044;-85
2024/03/15 09:47:49;;;;;;;14.88;10.63;;;;;;;10.37;93.33;98147.31;5018217;28;20493;-85
2024/03/15 09:50:16;;;;;;;14.48;10.65;;;;;;;10.62;92.28;98167.09;5018183;28;20112;-86
2024/03/15 09:52:46;;;;;;;13.27;9.48;;;;;;;10.52;92.97;98154.53;5003427;28;20382;-85
2024/03/15 09:55:16;;;;;;;14.68;9.98;;;;;;;10.54;92.36;98128.41;5037388;28;20077;-86
2024/03/15 09:57:43;;;;;;;13.88;9.23;;;;;;;10.80;92.11;98174.59;5019672;28;20116;-86
2024/03/15 10:00:16;;;;;;;14.07;9.85;;;;;;;10.79;91.81;98165.00;5034284;28;20037;-86
2024/03/15 10:02:45;;;;;;;12.10;8.95;;;;;;;10.72;92.24;98157.25;5017119;28;20037;-86
2024/03/15 10:05:12;;;;;;;21.52;9.45;;;;;;;10.72;91.77;98143.91;5030082;28;20025;-86
2024/03/15 10:07:38;;;;;;;14.35;8.57;;;;;;;10.81;91.16;98141.50;5003418;28;20025;-86
2024/03/15 10:10:05;;;;;;;11.70;8.93;;;;;;;10.45;90.81;98081.97;5036468;28;20036;-86
2024/03/15 10:12:33;;;;;;;12.10;9.57;;;;;;;10.84;90.12;98132.94;5021000;28;20037;-85
2024/03/15 10:14:59;;;;;;;11.63;9.07;;;;;;;10.99;90.99;98146.28;5001925;28;20033;-85
2024/03/15 10:17:24;;;;;;;14.15;9.57;;;;;;;11.06;91.04;98154.81;4990381;28;20051;-86
2024/03/15 10:19:50;;;;;;;10.95;9.38;;;;;;;11.08;91.11;98139.34;5021079;28;20029;-86
2024/03/15 10:22:15;;;;;;;15.07;9.63;;;;;;;11.05;90.32;98159.38;5023594;28;20037;-85
2024/03/15 10:24:40;;;;;;;12.43;8.57;;;;;;;10.85;90.52;98110.53;5018388;28;20033;-86
2024/03/15 10:27:12;;;;;;;13.43;9.45;;;;;;;11.07;90.74;98151.09;5020293;28;20064;-85
2024/03/15 10:29:38;;;;;;;11.23;9.25;;;;;;;11.10;90.87;98143.34;5015543;28;20025;-85
2024/03/15 10:32:10;;;;;;;10.40;8.82;;;;;;;11.07;89.72;98127.06;5023497;28;20079;-86
2024/03/15 10:34:37;;;;;;;12.75;8.95;;;;;;;11.07;89.70;98113.72;5021173;28;20033;-84
2024/03/15 10:37:10;;;;;;;13.50;8.70;;;;;;;11.23;89.82;98139.31;5036274;28;20049;-86
2024/03/15 10:39:35;;;;;;;14.23;8.50;;;;;;;11.28;89.71;98147.34;5018821;28;20041;-86
2024/03/15 10:42:01;;;;;;;15.35;8.73;;;;;;;11.28;89.62;98112.59;5040966;28;20030;-86
2024/03/15 10:44:28;;;;;;;18.83;8.40;;;;;;;11.36;89.17;98128.06;5020577;28;20029;-85
2024/03/15 10:46:54;;;;;;;12.45;8.88;;;;;;;11.27;89.71;98089.63;5004886;28;20044;-85
2024/03/15 10:49:21;;;;;;;14.35;8.45;;;;;;;11.57;89.25;98144.88;5022445;28;20021;-84
2024/03/15 10:51:47;;;;;;;9.55;8.50;;;;;;;11.60;89.00;98133.66;4994653;28;20029;-85
2024/03/15 10:54:20;;;;;;;12.00;8.63;;;;;;;11.70;89.41;98133.63;5004486;28;20385;-85
2024/03/15 10:56:47;;;;;;;14.23;9.55;;;;;;;11.76;87.96;98133.34;5039262;28;20026;-86
2024/03/15 10:59:12;;;;;;;17.75;8.57;;;;;;;11.75;87.70;98144.31;5036299;28;20022;-86
2024/03/15 11:01:40;;;;;;;10.32;8.57;;;;;;;11.83;88.41;98139.19;5037001;28;20040;-86
2024/03/15 11:04:13;;;;;;;14.40;8.95;;;;;;;11.76;87.64;98132.53;5018973;28;20030;-87
2024/03/15 11:06:40;;;;;;;13.48;7.95;;;;;;;11.89;87.59;98159.50;5014227;28;20432;-86
2024/03/15 11:09:20;;;;;;;11.18;8.07;;;;;;;11.88;87.13;98143.72;5036637;28;20032;-85
2024/03/15 11:11:55;;;;;;;12.38;8.70;;;;;;;12.05;87.68;98173.59;5037593;28;20034;-85
2024/03/15 11:14:24;;;;;;;14.57;8.63;;;;;;;12.20;85.98;98165.50;5039017;28;20098;-85
2024/03/15 11:16:58;;;;;;;9.43;8.15;;;;;;;12.27;85.82;98178.59;5019669;28;20120;-84
2024/03/15 11:19:23;;;;;;;10.95;7.85;;;;;;;12.21;85.51;98147.59;5020008;28;20032;-85
2024/03/15 11:22:00;;;;;;;11.20;7.95;;;;;;;12.23;85.71;98158.81;5004861;28;20029;-85
2024/03/15 11:24:26;;;;;;;14.32;8.48;;;;;;;12.23;85.43;98146.22;5037489;28;20056;-85
2024/03/15 11:27:03;;;;;;;10.88;8.45;;;;;;;12.37;85.12;98163.28;5003603;28;20068;-85
2024/03/15 11:29:44;;;;;;;14.68;8.77;;;;;;;12.31;84.64;98152.88;5036960;28;20054;-86
2024/03/15 11:32:10;;;;;;;10.95;7.28;;;;;;;12.47;84.60;98162.44;5037443;28;20560;-85
2024/03/15 11:34:38;;;;;;;8.18;7.35;;;;;;;12.46;84.28;98153.59;5035354;28;20021;-85
2024/03/15 11:37:04;;;;;;;8.27;6.93;;;;;;;12.36;84.34;98144.81;5022090;28;20025;-85
2024/03/15 11:39:29;;;;;;;10.23;6.75;;;;;;;12.41;84.12;98147.44;5020980;28;20482;-84